createdAt,value
2023-05-09T00:00:37.826Z,13.05
2023-05-09T00:03:06.690Z,13.43
2023-05-09T00:05:35.056Z,13.80
2023-05-09T00:08:03.299Z,13.43
2023-05-09T00:10:31.830Z,14.50
2023-05-09T00:13:00.990Z,12.80
2023-05-09T00:15:31.973Z,14.00
2023-05-09T00:18:00.438Z,12.52
2023-05-09T00:20:28.961Z,14.43
2023-05-09T00:22:57.257Z,14.63
2023-05-09T00:25:26.786Z,14.55
2023-05-09T00:27:56.269Z,14.80
2023-05-09T00:30:24.549Z,13.75
2023-05-09T00:32:54.369Z,13.43
2023-05-09T00:35:22.781Z,13.77
2023-05-09T00:37:51.086Z,13.27
2023-05-09T00:40:19.353Z,13.70
2023-05-09T00:42:47.607Z,12.45
2023-05-09T00:45:16.038Z,13.10
2023-05-09T00:47:44.451Z,13.18
2023-05-09T00:50:14.961Z,12.68
2023-05-09T00:52:43.373Z,12.70
2023-05-09T00:55:11.853Z,13.50
2023-05-09T00:57:40.517Z,13.50
2023-05-09T01:00:13.333Z,14.60
2023-05-09T01:02:42.587Z,13.05
2023-05-09T01:05:11.219Z,12.90
2023-05-09T01:07:45.501Z,13.50
2023-05-09T01:10:20.300Z,13.55
2023-05-09T01:12:51.267Z,12.63
2023-05-09T01:15:24.894Z,12.60
2023-05-09T01:17:56.543Z,12.77
2023-05-09T01:20:33.817Z,13.75
2023-05-09T01:23:19.638Z,12.93
2023-05-09T01:25:57.581Z,15.45
2023-05-09T01:28:40.023Z,15.85
2023-05-09T01:31:10.088Z,14.85
2023-05-09T01:33:40.470Z,16.58
2023-05-09T01:36:13.052Z,16.38
2023-05-09T01:38:43.717Z,15.85
2023-05-09T01:43:41.755Z,17.08
2023-05-09T01:46:11.973Z,16.70
2023-05-09T01:48:41.170Z,16.25
2023-05-09T01:51:10.727Z,16.77
2023-05-09T01:53:39.191Z,16.48
2023-05-09T01:56:09.448Z,17.08
2023-05-09T01:58:38.205Z,16.55
2023-05-09T02:01:07.291Z,17.45
2023-05-09T02:03:38.621Z,16.77
2023-05-09T02:06:07.457Z,16.70
2023-05-09T02:08:35.991Z,15.88
2023-05-09T02:11:04.475Z,15.75
2023-05-09T02:13:32.882Z,15.93
2023-05-09T02:16:01.972Z,14.63
2023-05-09T02:18:32.620Z,16.50
2023-05-09T02:21:02.439Z,14.27
2023-05-09T02:23:30.946Z,16.35
2023-05-09T02:26:00.462Z,14.88
2023-05-09T02:28:30.600Z,15.43
2023-05-09T02:31:00.580Z,14.82
2023-05-09T02:33:33.990Z,14.63
2023-05-09T02:36:05.055Z,14.85
2023-05-09T02:38:33.576Z,13.52
2023-05-09T02:41:01.909Z,12.90
2023-05-09T02:43:30.148Z,13.40
2023-05-09T02:45:58.483Z,12.25
2023-05-09T02:48:26.782Z,12.50
2023-05-09T02:50:59.188Z,11.55
2023-05-09T02:53:30.151Z,11.52
2023-05-09T02:55:59.809Z,11.45
2023-05-09T02:58:28.520Z,10.20
2023-05-09T03:00:56.788Z,10.50
2023-05-09T03:03:25.433Z,10.80
2023-05-09T03:05:53.818Z,10.52
2023-05-09T03:08:22.018Z,10.20
2023-05-09T03:10:51.642Z,9.68
2023-05-09T03:13:19.939Z,9.65
2023-05-09T03:15:48.334Z,9.93
2023-05-09T03:18:16.668Z,9.63
2023-05-09T03:20:44.938Z,9.52
2023-05-09T03:23:13.296Z,9.23
2023-05-09T03:25:41.537Z,9.25
2023-05-09T03:28:11.191Z,9.52
2023-05-09T03:30:39.461Z,8.40
2023-05-09T03:33:08.672Z,8.43
2023-05-09T03:35:36.977Z,9.07
2023-05-09T03:38:05.782Z,8.75
2023-05-09T03:40:34.013Z,9.15
2023-05-09T03:43:02.265Z,8.70
2023-05-09T03:45:31.901Z,8.85
2023-05-09T03:48:00.224Z,9.45
2023-05-09T03:50:28.642Z,9.73
2023-05-09T03:52:57.069Z,10.00
2023-05-09T03:55:25.373Z,9.73
2023-05-09T03:57:53.617Z,10.32
2023-05-09T04:00:22.531Z,10.88
2023-05-09T04:02:52.294Z,9.52
2023-05-09T04:05:21.045Z,10.07
2023-05-09T04:07:49.445Z,9.77
2023-05-09T04:10:17.708Z,10.35
2023-05-09T04:12:46.021Z,10.40
2023-05-09T04:15:14.519Z,10.20
2023-05-09T04:17:42.999Z,10.35
2023-05-09T04:20:13.724Z,10.80
2023-05-09T04:22:41.944Z,11.75
2023-05-09T04:25:13.681Z,11.05
2023-05-09T04:27:42.116Z,9.27
2023-05-09T04:30:11.387Z,9.73
2023-05-09T04:32:39.802Z,9.77
2023-05-09T04:35:09.210Z,9.27
2023-05-09T04:37:38.898Z,10.38
2023-05-09T04:40:09.101Z,10.30
2023-05-09T04:42:37.665Z,9.88
2023-05-09T04:45:07.317Z,10.43
2023-05-09T04:47:35.657Z,10.03
2023-05-09T04:50:04.150Z,10.10
2023-05-09T04:52:32.685Z,10.20
2023-05-09T04:55:02.370Z,9.02
2023-05-09T04:57:30.763Z,9.30
2023-05-09T04:59:59.106Z,8.93
2023-05-09T05:02:27.576Z,8.80
2023-05-09T05:05:17.522Z,8.45
2023-05-09T05:07:44.033Z,7.97
2023-05-09T05:10:13.649Z,8.63
2023-05-09T05:12:41.943Z,8.80
2023-05-09T05:15:11.152Z,8.40
2023-05-09T05:17:39.405Z,8.13
2023-05-09T05:20:10.648Z,8.80
2023-05-09T05:22:39.038Z,8.07
2023-05-09T05:25:08.526Z,8.00
2023-05-09T05:27:38.294Z,8.27
2023-05-09T05:30:07.693Z,7.93
2023-05-09T05:32:36.039Z,7.88
2023-05-09T05:35:04.997Z,9.65
2023-05-09T05:37:33.308Z,7.50
2023-05-09T05:40:01.573Z,6.50
2023-05-09T05:42:29.816Z,7.40
2023-05-09T05:45:04.276Z,7.50
2023-05-09T05:47:33.154Z,7.38
2023-05-09T05:50:02.996Z,6.90
2023-05-09T05:52:32.084Z,7.68
2023-05-09T05:55:00.383Z,7.50
2023-05-09T05:57:28.699Z,7.22
2023-05-09T05:59:57.017Z,7.05
2023-05-09T06:02:26.820Z,7.55
2023-05-09T06:04:59.125Z,7.97
2023-05-09T06:07:29.996Z,7.72
2023-05-09T06:09:58.436Z,7.90
2023-05-09T06:12:28.065Z,7.60
2023-05-09T06:14:57.868Z,7.55
2023-05-09T06:17:31.052Z,7.63
2023-05-09T06:19:59.351Z,7.93
2023-05-09T06:22:27.577Z,7.60
2023-05-09T06:24:55.801Z,7.78
2023-05-09T06:27:24.174Z,7.75
2023-05-09T06:29:52.782Z,8.27
2023-05-09T06:32:21.231Z,7.22
2023-05-09T06:34:51.112Z,7.88
2023-05-09T06:37:19.556Z,8.45
2023-05-09T06:39:47.848Z,8.75
2023-05-09T06:42:16.658Z,8.52
2023-05-09T06:44:44.959Z,8.90
2023-05-09T06:47:13.235Z,9.13
2023-05-09T06:49:41.501Z,9.05
2023-05-09T06:52:12.955Z,8.68
2023-05-09T06:54:52.012Z,9.10
2023-05-09T06:57:23.322Z,9.50
2023-05-09T06:59:51.639Z,9.07
2023-05-09T07:02:19.876Z,7.75
2023-05-09T07:04:48.402Z,9.63
2023-05-09T07:07:18.514Z,9.27
2023-05-09T07:09:46.861Z,9.20
2023-05-09T07:12:15.724Z,9.88
2023-05-09T07:14:43.999Z,9.48
2023-05-09T07:17:21.965Z,9.60
2023-05-09T07:19:51.551Z,9.75
2023-05-09T07:22:21.274Z,9.15
2023-05-09T07:24:50.844Z,8.60
2023-05-09T07:27:19.178Z,9.73
2023-05-09T07:29:49.097Z,9.25
2023-05-09T07:32:17.491Z,9.00
2023-05-09T07:34:45.954Z,7.63
2023-05-09T07:37:15.444Z,8.13
2023-05-09T07:42:16.073Z,8.50
2023-05-09T07:44:44.340Z,9.20
2023-05-09T07:47:12.708Z,9.38
2023-05-09T07:49:43.238Z,8.80
2023-05-09T07:54:40.677Z,8.55
2023-05-09T07:57:10.547Z,8.35
2023-05-09T07:59:38.953Z,7.25
2023-05-09T08:02:07.731Z,8.23
2023-05-09T08:04:37.734Z,8.73
2023-05-09T08:07:07.245Z,9.10
2023-05-09T08:09:35.704Z,8.98
2023-05-09T08:12:04.038Z,8.35
2023-05-09T08:14:33.684Z,8.95
2023-05-09T08:17:02.165Z,8.73
2023-05-09T08:19:30.433Z,8.90
2023-05-09T08:21:58.752Z,9.25
2023-05-09T08:24:27.030Z,7.97
2023-05-09T08:26:55.451Z,8.63
2023-05-09T08:29:23.680Z,9.60
2023-05-09T08:31:53.479Z,9.07
2023-05-09T08:34:21.949Z,8.35
2023-05-09T08:36:50.238Z,8.90
2023-05-09T08:39:19.183Z,8.57
2023-05-09T08:41:47.503Z,9.30
2023-05-09T08:44:15.939Z,9.75
2023-05-09T08:46:49.412Z,9.93
2023-05-09T08:49:19.489Z,10.10
2023-05-09T08:51:50.041Z,9.27
2023-05-09T08:54:19.593Z,9.10
2023-05-09T08:59:18.549Z,9.57
2023-05-09T09:01:47.244Z,9.68
2023-05-09T09:04:15.746Z,10.10
2023-05-09T09:06:45.521Z,9.63
2023-05-09T09:09:15.019Z,10.70
2023-05-09T09:11:43.668Z,10.23
2023-05-09T09:14:14.023Z,10.73
2023-05-09T09:16:45.698Z,10.50
2023-05-09T09:19:18.758Z,10.73
2023-05-09T09:21:53.912Z,11.10
2023-05-09T09:24:27.230Z,11.82
2023-05-09T09:26:55.595Z,11.50
2023-05-09T09:29:24.622Z,10.88
2023-05-09T09:31:55.311Z,11.35
2023-05-09T09:34:24.600Z,11.68
2023-05-09T09:36:54.286Z,12.07
2023-05-09T09:39:23.140Z,12.30
2023-05-09T09:41:51.550Z,12.40
2023-05-09T09:44:21.077Z,12.52
2023-05-09T09:46:51.289Z,12.00
2023-05-09T09:49:21.305Z,12.77
2023-05-09T09:51:55.722Z,12.77
2023-05-09T09:54:27.198Z,12.32
2023-05-09T09:56:56.656Z,10.82
2023-05-09T09:59:26.059Z,12.63
2023-05-09T10:01:56.376Z,13.35
2023-05-09T10:04:25.195Z,12.75
2023-05-09T10:06:55.760Z,13.00
2023-05-09T10:09:24.720Z,11.88
2023-05-09T10:11:54.042Z,12.05
2023-05-09T10:14:23.473Z,12.57
2023-05-09T10:16:53.711Z,12.90
2023-05-09T10:19:23.303Z,13.43
2023-05-09T10:21:53.787Z,11.90
2023-05-09T10:27:01.603Z,13.38
2023-05-09T10:29:31.935Z,13.20
2023-05-09T10:32:02.700Z,12.98
2023-05-09T10:34:33.114Z,11.80
2023-05-09T10:39:31.933Z,11.57
2023-05-09T10:44:29.458Z,13.00
2023-05-09T10:46:58.013Z,13.70
2023-05-09T10:49:26.790Z,14.63
2023-05-09T10:51:55.092Z,13.00
2023-05-09T10:54:33.473Z,14.25
2023-05-09T10:57:01.856Z,13.85
2023-05-09T10:59:37.890Z,13.32
2023-05-09T11:02:06.963Z,11.85
2023-05-09T11:04:35.368Z,12.40
2023-05-09T11:07:03.670Z,12.88
2023-05-09T11:09:35.662Z,12.93
2023-05-09T11:12:11.904Z,12.45
2023-05-09T11:14:42.939Z,13.25
2023-05-09T11:17:12.953Z,13.75
2023-05-09T11:20:01.632Z,9.98
2023-05-09T11:22:32.601Z,12.35
2023-05-09T11:25:07.255Z,10.65
2023-05-09T11:27:41.236Z,13.60
2023-05-09T11:30:11.057Z,14.18
2023-05-09T11:33:07.836Z,12.80
2023-05-09T11:35:39.432Z,14.60
2023-05-09T11:38:08.258Z,15.20
2023-05-09T11:40:38.336Z,15.10
2023-05-09T11:43:09.252Z,14.90
2023-05-09T11:45:37.637Z,14.13
2023-05-09T11:48:09.894Z,13.95
2023-05-09T11:50:38.258Z,15.45
2023-05-09T11:53:08.314Z,14.30
2023-05-09T11:55:39.096Z,15.52
2023-05-09T11:58:09.053Z,14.95
2023-05-09T12:00:37.513Z,9.65
2023-05-09T12:03:06.614Z,14.38
2023-05-09T12:05:35.098Z,14.70
2023-05-09T12:08:04.623Z,14.45
2023-05-09T12:10:33.254Z,13.87
2023-05-09T12:13:04.108Z,13.60
2023-05-09T12:15:37.781Z,13.27
2023-05-09T12:18:08.089Z,13.68
2023-05-09T12:20:43.730Z,14.15
2023-05-09T12:23:12.706Z,14.80
2023-05-09T12:25:41.157Z,14.07
2023-05-09T12:28:10.962Z,13.88
2023-05-09T12:30:39.260Z,13.65
2023-05-09T12:33:10.385Z,13.63
2023-05-09T12:35:39.453Z,12.93
2023-05-09T12:38:07.755Z,12.18
2023-05-09T12:40:36.037Z,12.98
2023-05-09T12:43:05.967Z,13.87
2023-05-09T12:45:35.803Z,12.05
2023-05-09T12:48:05.183Z,12.93
2023-05-09T12:50:35.848Z,10.47
2023-05-09T12:53:05.290Z,11.63
2023-05-09T12:55:40.254Z,11.40
2023-05-09T12:58:08.487Z,11.82
2023-05-09T13:00:45.222Z,11.13
2023-05-09T13:03:25.412Z,10.52
2023-05-09T13:06:00.198Z,10.85
2023-05-09T13:08:29.346Z,11.25
2023-05-09T13:11:11.849Z,10.77
2023-05-09T13:13:43.683Z,10.63
2023-05-09T13:16:15.052Z,10.60
2023-05-09T13:18:45.716Z,10.07
2023-05-09T13:21:13.943Z,9.70
2023-05-09T13:23:44.528Z,10.80
2023-05-09T13:26:12.902Z,10.57
2023-05-09T13:28:41.191Z,9.48
2023-05-09T13:31:09.603Z,9.07
2023-05-09T13:33:39.327Z,9.98
2023-05-09T13:36:08.078Z,10.18
2023-05-09T13:38:38.868Z,8.80
2023-05-09T13:41:07.387Z,11.20
2023-05-09T13:43:35.915Z,11.15
2023-05-09T13:46:04.505Z,9.75
2023-05-09T13:48:32.761Z,11.02
2023-05-09T13:51:07.630Z,9.55
2023-05-09T13:53:38.676Z,8.98
2023-05-09T13:56:09.497Z,10.07
2023-05-09T13:58:37.936Z,9.57
2023-05-09T14:01:07.644Z,9.63
2023-05-09T14:03:36.302Z,9.07
2023-05-09T14:06:06.253Z,8.25
2023-05-09T14:08:34.612Z,8.32
2023-05-09T14:11:04.304Z,7.90
2023-05-09T14:13:33.147Z,6.82
2023-05-09T14:16:01.803Z,8.40
2023-05-09T14:18:30.199Z,8.02
2023-05-09T14:20:58.630Z,8.32
2023-05-09T14:23:28.561Z,7.85
2023-05-09T14:25:59.751Z,5.85
2023-05-09T14:28:29.429Z,5.85
2023-05-09T14:30:58.344Z,6.72
2023-05-09T14:33:27.565Z,6.93
2023-05-09T14:35:56.492Z,5.72
2023-05-09T14:38:24.764Z,5.60
2023-05-09T14:40:54.438Z,7.45
2023-05-09T14:43:23.179Z,8.07
2023-05-09T14:45:53.150Z,7.75
2023-05-09T14:48:22.182Z,8.13
2023-05-09T14:50:53.537Z,8.32
2023-05-09T14:53:22.608Z,8.05
2023-05-09T14:55:50.905Z,9.13
2023-05-09T14:58:20.699Z,8.80
2023-05-09T15:00:49.256Z,8.35
2023-05-09T15:03:17.968Z,8.60
2023-05-09T15:05:46.438Z,7.95
2023-05-09T15:08:14.701Z,8.30
2023-05-09T15:10:48.469Z,8.80
2023-05-09T15:13:17.007Z,7.63
2023-05-09T15:15:47.294Z,7.88
2023-05-09T15:20:45.424Z,5.77
2023-05-09T15:23:14.170Z,5.40
2023-05-09T15:25:43.745Z,6.65
2023-05-09T15:28:12.118Z,6.53
2023-05-09T15:30:41.542Z,6.22
2023-05-09T15:33:11.475Z,6.68
2023-05-09T15:35:40.029Z,6.55
2023-05-09T15:38:12.026Z,6.90
2023-05-09T15:40:41.305Z,6.30
2023-05-09T15:43:09.739Z,6.65
2023-05-09T15:45:38.865Z,8.10
2023-05-09T15:48:07.499Z,9.02
2023-05-09T15:50:38.436Z,8.63
2023-05-09T15:53:07.006Z,9.30
2023-05-09T15:55:35.484Z,8.45
2023-05-09T15:58:03.923Z,8.15
2023-05-09T16:00:32.276Z,8.65
2023-05-09T16:03:00.731Z,8.43
2023-05-09T16:05:29.178Z,8.43
2023-05-09T16:07:58.820Z,8.88
2023-05-09T16:10:27.281Z,10.20
2023-05-09T16:12:59.830Z,10.65
2023-05-09T16:15:28.238Z,9.98
2023-05-09T16:17:57.604Z,9.85
2023-05-09T16:20:26.261Z,8.57
2023-05-09T16:22:54.628Z,8.82
2023-05-09T16:25:35.304Z,8.88
2023-05-09T16:28:15.329Z,8.10
2023-05-09T16:30:44.416Z,8.73
2023-05-09T16:33:13.009Z,7.78
2023-05-09T16:35:46.087Z,7.80
2023-05-09T16:38:14.593Z,8.35
2023-05-09T16:40:44.333Z,7.43
2023-05-09T16:43:12.676Z,7.40
2023-05-09T16:45:56.387Z,7.30
2023-05-09T16:48:24.686Z,7.30
2023-05-09T16:50:53.703Z,7.32
2023-05-09T16:53:37.045Z,7.60
2023-05-09T16:56:07.938Z,7.80
2023-05-09T16:58:36.817Z,7.57
2023-05-09T17:01:05.702Z,7.57
2023-05-09T17:03:34.252Z,7.82
2023-05-09T17:06:02.470Z,7.80
2023-05-09T17:08:30.732Z,7.38
2023-05-09T17:10:59.079Z,7.30
2023-05-09T17:13:28.870Z,6.85
2023-05-09T17:15:57.535Z,6.55
2023-05-09T17:18:36.661Z,7.20
2023-05-09T17:21:06.595Z,7.18
2023-05-09T17:23:34.852Z,7.03
2023-05-09T17:26:03.797Z,7.50
2023-05-09T17:28:33.450Z,7.20
2023-05-09T17:31:03.333Z,7.45
2023-05-09T17:33:31.634Z,7.63
2023-05-09T17:36:00.527Z,7.57
2023-05-09T17:38:29.134Z,6.57
2023-05-09T17:40:57.440Z,8.70
2023-05-09T17:43:27.818Z,8.30
2023-05-09T17:48:25.548Z,7.72
2023-05-09T17:50:54.431Z,6.80
2023-05-09T17:53:27.593Z,6.15
2023-05-09T17:55:56.076Z,6.63
2023-05-09T17:58:24.326Z,6.80
2023-05-09T18:00:53.960Z,6.65
2023-05-09T18:03:23.624Z,6.55
2023-05-09T18:05:51.985Z,6.20
2023-05-09T18:08:20.300Z,6.57
2023-05-09T18:10:49.090Z,6.43
2023-05-09T18:13:17.798Z,6.10
2023-05-09T18:15:46.333Z,6.43
2023-05-09T18:18:16.638Z,5.75
2023-05-09T18:23:16.714Z,5.90
2023-05-09T18:25:44.950Z,5.88
2023-05-09T18:28:15.181Z,5.55
2023-05-09T18:33:49.297Z,5.35
2023-05-09T18:36:31.830Z,6.07
2023-05-09T18:39:08.927Z,6.40
2023-05-09T18:41:37.317Z,6.10
2023-05-09T18:44:27.769Z,6.63
2023-05-09T18:46:59.089Z,6.53
2023-05-09T18:49:49.558Z,6.90
2023-05-09T18:57:19.217Z,6.10
2023-05-09T18:59:47.610Z,6.65
2023-05-09T19:02:15.916Z,5.93
2023-05-09T19:04:46.049Z,6.80
2023-05-09T19:07:15.088Z,6.40
2023-05-09T19:09:44.750Z,6.50
2023-05-09T19:12:13.069Z,6.35
2023-05-09T19:14:41.370Z,5.95
2023-05-09T19:17:10.844Z,6.40
2023-05-09T19:19:39.837Z,6.22
2023-05-09T19:22:08.794Z,6.82
2023-05-09T19:24:37.557Z,6.30
2023-05-09T19:27:07.902Z,5.97
2023-05-09T19:32:07.784Z,6.45
2023-05-09T19:34:37.006Z,6.32
2023-05-09T19:37:05.958Z,6.95
2023-05-09T19:39:34.218Z,7.18
2023-05-09T19:42:02.861Z,6.47
2023-05-09T19:44:33.994Z,5.90
2023-05-09T19:47:05.460Z,6.10
2023-05-09T19:49:42.804Z,5.80
2023-05-09T19:52:13.951Z,6.40
2023-05-09T19:54:42.290Z,5.95
2023-05-09T19:57:10.663Z,6.20
2023-05-09T19:59:40.425Z,5.82
2023-05-09T20:02:09.627Z,6.03
2023-05-09T20:04:38.226Z,5.97
2023-05-09T20:07:06.579Z,5.40
2023-05-09T20:09:34.810Z,5.35
2023-05-09T20:12:03.756Z,6.18
2023-05-09T20:14:32.336Z,6.47
2023-05-09T20:17:01.992Z,6.35
2023-05-09T20:19:30.400Z,6.20
2023-05-09T20:21:58.652Z,6.10
2023-05-09T20:24:26.954Z,6.03
2023-05-09T20:26:55.628Z,5.22
2023-05-09T20:29:25.104Z,5.50
2023-05-09T20:31:53.471Z,5.63
2023-05-09T20:34:24.608Z,6.13
2023-05-09T20:36:53.857Z,5.90
2023-05-09T20:39:23.050Z,6.15
2023-05-09T20:41:52.389Z,5.70
2023-05-09T20:44:20.781Z,5.70
2023-05-09T20:46:49.283Z,6.50
2023-05-09T20:49:17.501Z,5.85
2023-05-09T20:51:47.129Z,5.68
2023-05-09T20:54:15.427Z,5.87
2023-05-09T20:56:43.724Z,6.00
2023-05-09T20:59:12.034Z,5.55
2023-05-09T21:01:40.621Z,6.25
2023-05-09T21:04:09.556Z,5.22
2023-05-09T21:06:37.933Z,5.60
2023-05-09T21:09:08.967Z,6.38
2023-05-09T21:11:38.340Z,5.97
2023-05-09T21:14:07.025Z,6.10
2023-05-09T21:16:35.627Z,6.05
2023-05-09T21:19:05.248Z,5.70
2023-05-09T21:21:34.104Z,6.40
2023-05-09T21:24:04.242Z,6.07
2023-05-09T21:26:33.882Z,5.95
2023-05-09T21:29:02.415Z,6.40
2023-05-09T21:31:31.347Z,6.03
2023-05-09T21:34:00.125Z,6.15
2023-05-09T21:36:28.422Z,6.28
2023-05-09T21:38:56.946Z,6.38
2023-05-09T21:41:25.202Z,6.03
2023-05-09T21:43:54.876Z,6.18
2023-05-09T21:46:23.207Z,6.10
2023-05-09T21:48:51.573Z,6.15
2023-05-09T21:51:20.285Z,6.22
2023-05-09T21:53:48.539Z,6.78
2023-05-09T21:56:16.834Z,7.00
2023-05-09T21:58:45.091Z,6.63
2023-05-09T22:01:16.476Z,5.63
2023-05-09T22:03:44.896Z,6.10
2023-05-09T22:06:13.514Z,6.15
2023-05-09T22:08:41.811Z,6.15
2023-05-09T22:11:10.950Z,6.13
2023-05-09T22:13:40.240Z,4.88
2023-05-09T22:16:08.903Z,4.32
2023-05-09T22:18:38.575Z,4.20
2023-05-09T22:21:07.062Z,1.80
2023-05-09T22:23:35.634Z,2.33
2023-05-09T22:26:03.882Z,1.38
2023-05-09T22:28:32.145Z,1.20
2023-05-09T22:31:00.375Z,1.25
2023-05-09T22:33:29.222Z,1.20
2023-05-09T22:35:58.802Z,1.25
2023-05-09T22:38:27.204Z,0.90
2023-05-09T22:40:55.445Z,1.08
2023-05-09T22:43:25.424Z,1.40
2023-05-09T22:45:56.981Z,1.30
2023-05-09T22:48:25.269Z,1.10
2023-05-09T22:50:53.657Z,1.20
2023-05-09T22:53:23.366Z,1.30
2023-05-09T22:55:52.561Z,1.40
2023-05-09T22:58:20.780Z,1.35
2023-05-09T23:00:49.048Z,1.58
2023-05-09T23:03:32.281Z,1.10
2023-05-09T23:06:00.830Z,1.20
2023-05-09T23:08:30.481Z,1.10
2023-05-09T23:10:58.764Z,0.80
2023-05-09T23:13:27.118Z,0.80
2023-05-09T23:15:55.477Z,0.85
2023-05-09T23:18:23.873Z,0.73
2023-05-09T23:20:52.230Z,0.70
2023-05-09T23:23:20.541Z,0.57
2023-05-09T23:25:50.177Z,0.57
2023-05-09T23:28:20.164Z,0.50
2023-05-09T23:30:48.445Z,0.60
2023-05-09T23:33:16.792Z,0.63
2023-05-09T23:35:45.032Z,0.60
2023-05-09T23:38:13.336Z,0.50
2023-05-09T23:40:41.615Z,0.70
2023-05-09T23:43:11.220Z,0.50
2023-05-09T23:45:41.049Z,0.60
2023-05-09T23:48:09.594Z,0.57
2023-05-09T23:50:45.550Z,0.63
2023-05-09T23:53:15.318Z,0.63
2023-05-09T23:55:43.624Z,0.60
2023-05-09T23:58:13.451Z,0.90
